createdAt,value
2017-08-08T00:01:24.563Z,100949.01
2017-08-08T00:03:51.966Z,100947.98
2017-08-08T00:06:19.347Z,100949.02
2017-08-08T00:08:46.759Z,100940.67
2017-08-08T00:11:14.153Z,100936.82
2017-08-08T00:13:41.536Z,100941.39
2017-08-08T00:16:08.947Z,100933.28
2017-08-08T00:18:36.542Z,100934.22
2017-08-08T00:21:03.939Z,100935.11
2017-08-08T00:23:31.318Z,100937.80
2017-08-08T00:25:58.715Z,100921.59
2017-08-08T00:28:26.098Z,100928.80
2017-08-08T00:30:53.501Z,100925.15
2017-08-08T00:33:20.879Z,100926.98
2017-08-08T00:35:48.283Z,100925.91
2017-08-08T00:38:15.688Z,100924.16
2017-08-08T00:40:43.285Z,100918.63
2017-08-08T00:43:10.679Z,100917.45
2017-08-08T00:45:38.076Z,100915.07
2017-08-08T00:48:05.458Z,100910.30
2017-08-08T00:50:32.864Z,100903.83
2017-08-08T00:53:00.250Z,100899.09
2017-08-08T00:55:27.654Z,100895.63
2017-08-08T00:57:55.047Z,100898.32
2017-08-08T01:00:22.434Z,100895.05
2017-08-08T01:02:49.838Z,100892.52
2017-08-08T01:05:17.236Z,100891.40
2017-08-08T01:07:44.624Z,100898.61
2017-08-08T01:10:12.016Z,100900.39
2017-08-08T01:12:39.618Z,100892.95
2017-08-08T01:15:07.224Z,100883.91
2017-08-08T01:17:34.615Z,100886.48
2017-08-08T01:20:02.020Z,100884.80
2017-08-08T01:22:29.407Z,100883.59
2017-08-08T01:24:56.813Z,100882.33
2017-08-08T01:27:24.208Z,100879.58
2017-08-08T01:29:51.592Z,100874.00
2017-08-08T01:32:18.986Z,100871.84
2017-08-08T01:34:46.383Z,100867.50
2017-08-08T01:37:13.771Z,100859.55
2017-08-08T01:39:41.154Z,100857.69
2017-08-08T01:42:08.550Z,100858.66
2017-08-08T01:44:35.935Z,100859.23
2017-08-08T01:47:03.343Z,100844.53
2017-08-08T01:49:30.943Z,100844.33
2017-08-08T01:51:58.335Z,100845.43
2017-08-08T01:54:25.738Z,100844.20
2017-08-08T01:56:53.128Z,100834.83
2017-08-08T01:59:20.527Z,100838.78
2017-08-08T02:01:47.918Z,100833.86
2017-08-08T02:04:15.323Z,100833.75
2017-08-08T02:06:42.703Z,100840.55
2017-08-08T02:09:10.094Z,100837.45
2017-08-08T02:11:37.491Z,100832.00
2017-08-08T02:14:04.886Z,100824.92
2017-08-08T02:16:32.269Z,100816.63
2017-08-08T02:18:59.674Z,100813.08
2017-08-08T02:21:27.062Z,100810.33
2017-08-08T02:23:54.493Z,100801.75
2017-08-08T02:26:21.856Z,100807.23
2017-08-08T02:28:49.262Z,100804.45
2017-08-08T02:31:16.662Z,100800.84
2017-08-08T02:33:44.058Z,100797.16
2017-08-08T02:36:11.453Z,100796.53
2017-08-08T02:38:38.850Z,100793.83
2017-08-08T02:41:06.238Z,100789.18
2017-08-08T02:43:33.623Z,100785.90
2017-08-08T02:46:01.025Z,100779.85
2017-08-08T02:48:28.444Z,100778.03
2017-08-08T02:50:56.051Z,100780.71
2017-08-08T02:53:23.455Z,100775.52
2017-08-08T02:55:50.846Z,100774.91
2017-08-08T02:58:18.239Z,100770.84
2017-08-08T03:00:45.627Z,100764.72
2017-08-08T03:03:13.007Z,100766.23
2017-08-08T03:05:40.415Z,100771.31
2017-08-08T03:08:08.003Z,100767.45
2017-08-08T03:10:35.399Z,100759.28
2017-08-08T03:13:02.782Z,100751.26
2017-08-08T03:15:30.175Z,100752.05
2017-08-08T03:17:57.562Z,100747.11
2017-08-08T03:20:24.963Z,100743.80
2017-08-08T03:22:52.351Z,100746.13
2017-08-08T03:25:19.742Z,100742.55
2017-08-08T03:27:47.135Z,100740.30
2017-08-08T03:30:14.763Z,100737.27
2017-08-08T03:32:42.286Z,100733.83
2017-08-08T03:35:09.675Z,100728.99
2017-08-08T03:37:37.066Z,100722.22
2017-08-08T03:40:04.467Z,100729.95
2017-08-08T03:42:31.866Z,100726.73
2017-08-08T03:44:59.248Z,100723.06
2017-08-08T03:47:26.679Z,100722.56
2017-08-08T03:49:54.071Z,100728.16
2017-08-08T03:52:21.463Z,100727.88
2017-08-08T03:54:48.842Z,100725.91
2017-08-08T03:57:16.251Z,100729.50
2017-08-08T03:59:43.637Z,100726.20
2017-08-08T04:02:11.080Z,100714.80
2017-08-08T04:04:38.479Z,100711.21
2017-08-08T04:07:05.883Z,100710.88
2017-08-08T04:09:33.287Z,100711.50
2017-08-08T04:12:00.914Z,100706.12
2017-08-08T04:14:28.299Z,100709.16
2017-08-08T04:16:55.700Z,100712.97
2017-08-08T04:19:23.085Z,100701.44
2017-08-08T04:21:50.565Z,100700.18
2017-08-08T04:24:17.968Z,100697.77
2017-08-08T04:26:45.354Z,100685.89
2017-08-08T04:29:12.743Z,100688.28
2017-08-08T04:31:40.143Z,100686.15
2017-08-08T04:34:07.694Z,100691.16
2017-08-08T04:36:35.078Z,100681.67
2017-08-08T04:39:02.471Z,100676.12
2017-08-08T04:41:29.868Z,100671.95
2017-08-08T04:43:57.265Z,100670.27
2017-08-08T04:46:24.652Z,100677.37
2017-08-08T04:48:52.055Z,100669.35
2017-08-08T04:51:19.434Z,100677.62
2017-08-08T04:53:46.846Z,100687.27
2017-08-08T04:56:14.470Z,100687.80
2017-08-08T04:58:41.874Z,100679.91
2017-08-08T05:01:09.263Z,100672.02
2017-08-08T05:03:36.663Z,100667.58
2017-08-08T05:06:04.050Z,100671.94
2017-08-08T05:08:31.444Z,100665.09
2017-08-08T05:10:58.832Z,100675.06
2017-08-08T05:13:26.221Z,100669.01
2017-08-08T05:15:53.620Z,100666.39
2017-08-08T05:18:21.018Z,100658.34
2017-08-08T05:20:48.406Z,100654.52
2017-08-08T05:23:15.794Z,100647.67
2017-08-08T05:25:43.187Z,100639.51
2017-08-08T05:28:10.578Z,100636.08
2017-08-08T05:30:37.991Z,100640.52
2017-08-08T05:33:05.372Z,100635.39
2017-08-08T05:35:32.778Z,100636.14
2017-08-08T05:38:00.162Z,100626.77
2017-08-08T05:40:27.554Z,100631.30
2017-08-08T05:42:54.960Z,100639.52
2017-08-08T05:45:22.351Z,100643.52
2017-08-08T05:47:49.734Z,100644.72
2017-08-08T05:50:17.130Z,100643.17
2017-08-08T05:52:44.511Z,100639.92
2017-08-08T05:55:11.894Z,100638.61
2017-08-08T05:57:39.292Z,100637.58
2017-08-08T06:00:06.697Z,100636.00
2017-08-08T06:02:34.099Z,100629.35
2017-08-08T06:05:01.479Z,100625.09
2017-08-08T06:07:28.880Z,100622.56
2017-08-08T06:09:56.271Z,100615.12
2017-08-08T06:12:23.671Z,100608.34
2017-08-08T06:14:51.068Z,100600.98
2017-08-08T06:17:18.470Z,100594.04
2017-08-08T06:19:45.863Z,100590.69
2017-08-08T06:22:13.251Z,100591.25
2017-08-08T06:24:40.642Z,100599.19
2017-08-08T06:27:08.043Z,100602.80
2017-08-08T06:29:35.472Z,100597.78
2017-08-08T06:32:02.863Z,100591.73
2017-08-08T06:34:30.259Z,100583.41
2017-08-08T06:36:57.657Z,100582.38
2017-08-08T06:39:25.050Z,100582.91
2017-08-08T06:41:52.446Z,100591.42
2017-08-08T06:44:19.830Z,100586.44
2017-08-08T06:46:47.223Z,100581.44
2017-08-08T06:49:14.611Z,100578.40
2017-08-08T06:51:42.011Z,100573.16
2017-08-08T06:54:09.406Z,100575.79
2017-08-08T06:56:36.799Z,100570.98
2017-08-08T06:59:04.188Z,100561.60
2017-08-08T07:01:31.582Z,100557.47
2017-08-08T07:03:58.980Z,100554.89
2017-08-08T07:06:26.366Z,100561.36
2017-08-08T07:08:53.974Z,100562.59
2017-08-08T07:11:21.359Z,100554.91
2017-08-08T07:13:48.759Z,100556.70
2017-08-08T07:16:16.155Z,100550.34
2017-08-08T07:18:43.543Z,100547.48
2017-08-08T07:21:10.943Z,100544.30
2017-08-08T07:23:38.542Z,100541.80
2017-08-08T07:26:05.934Z,100537.56
2017-08-08T07:28:33.339Z,100532.45
2017-08-08T07:31:00.740Z,100523.02
2017-08-08T07:33:28.127Z,100528.63
2017-08-08T07:35:55.532Z,100533.43
2017-08-08T07:38:22.911Z,100545.92
2017-08-08T07:40:50.307Z,100538.05
2017-08-08T07:43:17.699Z,100540.40
2017-08-08T07:45:45.097Z,100532.34
2017-08-08T07:48:12.486Z,100537.44
2017-08-08T07:50:39.874Z,100542.34
2017-08-08T07:53:07.265Z,100549.08
2017-08-08T07:55:34.682Z,100542.56
2017-08-08T07:58:02.075Z,100543.81
2017-08-08T08:00:31.590Z,100543.81
2017-08-08T08:02:59.036Z,100545.94
2017-08-08T08:05:26.439Z,100546.02
2017-08-08T08:07:53.841Z,100545.87
2017-08-08T08:10:21.222Z,100552.34
2017-08-08T08:12:48.621Z,100544.42
2017-08-08T08:15:16.006Z,100545.27
2017-08-08T08:17:43.428Z,100532.11
2017-08-08T08:20:10.814Z,100540.09
2017-08-08T08:22:38.195Z,100542.13
2017-08-08T08:25:05.604Z,100539.49
2017-08-08T08:27:32.990Z,100537.58
2017-08-08T08:30:00.398Z,100529.24
2017-08-08T08:32:27.789Z,100530.11
2017-08-08T08:34:55.173Z,100539.45
2017-08-08T08:37:22.562Z,100532.72
2017-08-08T08:39:50.167Z,100534.53
2017-08-08T08:42:17.561Z,100532.36
2017-08-08T08:44:44.968Z,100532.84
2017-08-08T08:47:12.356Z,100529.30
2017-08-08T08:49:39.738Z,100530.27
2017-08-08T08:52:07.140Z,100530.91
2017-08-08T08:54:34.535Z,100519.70
2017-08-08T08:57:01.943Z,100514.83
2017-08-08T08:59:29.555Z,100504.07
2017-08-08T09:01:56.959Z,100498.05
2017-08-08T09:04:24.344Z,100488.11
2017-08-08T09:06:51.968Z,100481.20
2017-08-08T09:09:19.351Z,100480.52
2017-08-08T09:11:46.746Z,100467.02
2017-08-08T09:14:14.127Z,100471.81
2017-08-08T09:16:41.520Z,100463.70
2017-08-08T09:19:08.903Z,100455.88
2017-08-08T09:21:36.300Z,100451.77
2017-08-08T09:24:03.890Z,100446.69
2017-08-08T09:26:31.303Z,100433.25
2017-08-08T09:28:58.683Z,100434.66
2017-08-08T09:31:26.290Z,100435.48
2017-08-08T09:33:53.688Z,100432.30
2017-08-08T09:36:21.074Z,100432.02
2017-08-08T09:38:48.471Z,100428.36
2017-08-08T09:41:15.858Z,100419.27
2017-08-08T09:43:43.355Z,100422.73
2017-08-08T09:46:10.747Z,100406.08
2017-08-08T09:48:38.132Z,100413.56
2017-08-08T09:51:05.520Z,100395.09
2017-08-08T09:53:32.923Z,100386.66
2017-08-08T09:56:00.319Z,100380.39
2017-08-08T09:58:27.725Z,100374.52
2017-08-08T10:00:55.178Z,100380.48
2017-08-08T10:03:22.568Z,100363.51
2017-08-08T10:05:49.956Z,100364.16
2017-08-08T10:08:17.359Z,100354.17
2017-08-08T10:10:44.756Z,100353.58
2017-08-08T10:13:12.152Z,100345.16
2017-08-08T10:15:39.538Z,100346.33
2017-08-08T10:18:06.943Z,100341.14
2017-08-08T10:20:34.551Z,100343.44
2017-08-08T10:23:01.932Z,100336.71
2017-08-08T10:25:29.331Z,100338.14
2017-08-08T10:27:56.720Z,100338.78
2017-08-08T10:30:24.106Z,100333.22
2017-08-08T10:32:51.509Z,100341.29
2017-08-08T10:35:18.899Z,100343.69
2017-08-08T10:37:46.290Z,100338.89
2017-08-08T10:40:13.683Z,100344.22
2017-08-08T10:42:41.092Z,100344.52
2017-08-08T10:45:08.693Z,100349.30
2017-08-08T10:47:36.078Z,100343.28
2017-08-08T10:50:03.481Z,100341.67
2017-08-08T10:52:30.862Z,100340.95
2017-08-08T10:54:58.258Z,100346.56
2017-08-08T10:57:26.584Z,100341.27
2017-08-08T10:59:53.988Z,100352.19
2017-08-08T11:02:21.406Z,100339.45
2017-08-08T11:04:48.799Z,100347.69
2017-08-08T11:07:16.199Z,100343.62
2017-08-08T11:09:43.594Z,100352.19
2017-08-08T11:12:10.998Z,100355.66
2017-08-08T11:14:38.432Z,100349.86
2017-08-08T11:17:05.831Z,100360.04
2017-08-08T11:19:33.213Z,100342.33
2017-08-08T11:22:00.615Z,100349.33
2017-08-08T11:24:28.011Z,100355.80
2017-08-08T11:26:55.411Z,100362.98
2017-08-08T11:29:22.802Z,100373.46
2017-08-08T11:31:50.223Z,100375.75
2017-08-08T11:34:17.616Z,100378.33
2017-08-08T11:36:45.018Z,100375.46
2017-08-08T11:39:12.427Z,100374.39
2017-08-08T11:41:39.823Z,100367.05
2017-08-08T11:44:07.217Z,100368.33
2017-08-08T11:46:34.613Z,100383.81
2017-08-08T11:49:02.003Z,100358.52
2017-08-08T11:51:29.719Z,100367.11
2017-08-08T11:53:57.110Z,100360.39
2017-08-08T11:56:24.510Z,100355.45
2017-08-08T11:58:51.917Z,100362.16
2017-08-08T12:01:19.299Z,100351.05
2017-08-08T12:03:46.687Z,100348.51
2017-08-08T12:06:14.074Z,100346.51
2017-08-08T12:08:41.459Z,100348.87
2017-08-08T12:11:08.862Z,100344.38
2017-08-08T12:13:36.254Z,100352.35
2017-08-08T12:16:03.653Z,100343.62
2017-08-08T12:18:31.034Z,100347.35
2017-08-08T12:20:58.442Z,100346.72
2017-08-08T12:23:25.834Z,100342.88
2017-08-08T12:25:53.227Z,100342.95
2017-08-08T12:28:20.616Z,100334.27
2017-08-08T12:30:48.011Z,100332.53
2017-08-08T12:33:15.390Z,100323.17
2017-08-08T12:35:42.802Z,100318.11
2017-08-08T12:38:10.188Z,100307.78
2017-08-08T12:40:37.619Z,100304.34
2017-08-08T12:43:05.224Z,100299.67
2017-08-08T12:45:32.614Z,100303.39
2017-08-08T12:48:00.011Z,100295.31
2017-08-08T12:50:27.402Z,100292.77
2017-08-08T12:52:54.790Z,100297.05
2017-08-08T12:55:22.191Z,100286.64
2017-08-08T12:57:49.586Z,100283.83
2017-08-08T13:00:16.966Z,100285.30
2017-08-08T13:02:44.367Z,100284.73
2017-08-08T13:05:11.746Z,100277.14
2017-08-08T13:07:39.187Z,100273.32
2017-08-08T13:10:06.586Z,100269.80
2017-08-08T13:12:34.035Z,100271.26
2017-08-08T13:15:01.706Z,100272.88
2017-08-08T13:17:29.103Z,100269.66
2017-08-08T13:19:56.722Z,100276.64
2017-08-08T13:22:24.119Z,100286.45
2017-08-08T13:24:51.506Z,100290.91
2017-08-08T13:27:18.932Z,100294.36
2017-08-08T13:29:46.331Z,100294.78
2017-08-08T13:32:13.746Z,100305.63
2017-08-08T13:34:41.147Z,100304.50
2017-08-08T13:37:09.354Z,100305.84
2017-08-08T13:39:36.747Z,100304.91
2017-08-08T13:42:04.130Z,100306.16
2017-08-08T13:44:31.532Z,100319.28
2017-08-08T13:46:58.911Z,100315.64
2017-08-08T13:49:26.327Z,100319.72
2017-08-08T13:51:53.711Z,100326.52
2017-08-08T13:54:21.107Z,100319.86
2017-08-08T13:56:48.506Z,100328.28
2017-08-08T13:59:15.894Z,100329.97
2017-08-08T14:01:43.334Z,100337.76
2017-08-08T14:04:10.735Z,100341.31
2017-08-08T14:06:38.127Z,100331.50
2017-08-08T14:09:05.510Z,100321.28
2017-08-08T14:11:32.947Z,100315.64
2017-08-08T14:14:00.362Z,100312.94
2017-08-08T14:16:27.759Z,100322.11
2017-08-08T14:18:55.159Z,100325.67
2017-08-08T14:21:22.615Z,100322.04
2017-08-08T14:23:50.125Z,100314.23
2017-08-08T14:26:17.531Z,100306.06
2017-08-08T14:28:44.929Z,100291.86
2017-08-08T14:31:12.322Z,100292.38
2017-08-08T14:33:39.702Z,100275.73
2017-08-08T14:36:07.102Z,100259.66
2017-08-08T14:38:34.487Z,100254.59
2017-08-08T14:41:01.891Z,100255.16
2017-08-08T14:43:29.279Z,100242.16
2017-08-08T14:45:56.674Z,100245.20
2017-08-08T14:48:24.068Z,100248.91
2017-08-08T14:50:51.459Z,100241.86
2017-08-08T14:53:18.855Z,100240.98
2017-08-08T14:55:46.248Z,100243.21
2017-08-08T14:58:13.640Z,100228.41
2017-08-08T15:00:41.035Z,100235.58
2017-08-08T15:03:08.431Z,100228.89
2017-08-08T15:05:35.851Z,100213.02
2017-08-08T15:08:03.243Z,100208.96
2017-08-08T15:10:30.634Z,100207.74
2017-08-08T15:12:58.034Z,100211.19
2017-08-08T15:15:25.452Z,100205.84
2017-08-08T15:17:52.830Z,100207.91
2017-08-08T15:20:20.224Z,100185.63
2017-08-08T15:22:47.631Z,100173.73
2017-08-08T15:25:15.031Z,100163.61
2017-08-08T15:27:42.434Z,100157.22
2017-08-08T15:30:09.821Z,100153.53
2017-08-08T15:32:37.227Z,100151.66
2017-08-08T15:35:04.623Z,100150.76
2017-08-08T15:37:32.054Z,100164.61
2017-08-08T15:39:59.443Z,100163.61
2017-08-08T15:42:26.846Z,100167.87
2017-08-08T15:44:54.243Z,100167.91
2017-08-08T15:47:21.646Z,100175.04
2017-08-08T15:49:49.042Z,100176.39
2017-08-08T15:52:16.656Z,100185.59
2017-08-08T15:54:44.155Z,100190.36
2017-08-08T15:57:11.558Z,100200.84
2017-08-08T15:59:38.955Z,100203.88
2017-08-08T16:02:06.378Z,100206.59
2017-08-08T16:04:33.780Z,100200.88
2017-08-08T16:07:01.171Z,100201.66
2017-08-08T16:09:28.587Z,100203.31
2017-08-08T16:11:55.990Z,100194.06
2017-08-08T16:14:23.382Z,100192.80
2017-08-08T16:16:50.775Z,100189.95
2017-08-08T16:19:18.195Z,100200.73
2017-08-08T16:21:45.597Z,100206.81
2017-08-08T16:24:12.988Z,100226.30
2017-08-08T16:26:40.391Z,100237.98
2017-08-08T16:29:07.774Z,100250.91
2017-08-08T16:31:35.179Z,100255.80
2017-08-08T16:34:02.578Z,100262.14
2017-08-08T16:36:29.984Z,100257.98
2017-08-08T16:38:57.375Z,100255.45
2017-08-08T16:41:24.982Z,100265.25
2017-08-08T16:43:52.596Z,100270.66
2017-08-08T16:46:20.004Z,100275.59
2017-08-08T16:48:47.394Z,100288.48
2017-08-08T16:51:14.808Z,100292.02
2017-08-08T16:53:42.182Z,100283.17
2017-08-08T16:56:09.587Z,100280.30
2017-08-08T16:58:36.978Z,100283.02
2017-08-08T17:01:04.371Z,100283.23
2017-08-08T17:03:31.759Z,100271.48
2017-08-08T17:05:59.167Z,100276.02
2017-08-08T17:08:26.571Z,100273.89
2017-08-08T17:10:53.999Z,100261.56
2017-08-08T17:13:21.394Z,100257.40
2017-08-08T17:15:48.778Z,100253.70
2017-08-08T17:18:16.184Z,100257.22
2017-08-08T17:20:43.567Z,100260.02
2017-08-08T17:23:10.949Z,100256.89
2017-08-08T17:25:38.351Z,100251.23
2017-08-08T17:28:05.747Z,100254.09
2017-08-08T17:30:33.149Z,100257.11
2017-08-08T17:33:00.546Z,100265.97
2017-08-08T17:35:27.935Z,100267.05
2017-08-08T17:37:55.543Z,100265.31
2017-08-08T17:40:22.930Z,100261.77
2017-08-08T17:42:50.335Z,100264.67
2017-08-08T17:45:17.942Z,100271.93
2017-08-08T17:47:45.555Z,100271.20
2017-08-08T17:50:12.947Z,100262.78
2017-08-08T17:52:40.363Z,100257.80
2017-08-08T17:55:07.754Z,100258.23
2017-08-08T17:57:35.167Z,100260.70
2017-08-08T18:00:02.563Z,100260.40
2017-08-08T18:02:30.183Z,100245.94
2017-08-08T18:04:57.785Z,100245.73
2017-08-08T18:07:25.173Z,100241.11
2017-08-08T18:09:52.597Z,100237.34
2017-08-08T18:12:20.006Z,100233.81
2017-08-08T18:14:47.419Z,100232.47
2017-08-08T18:17:15.026Z,100230.53
2017-08-08T18:19:42.427Z,100244.20
2017-08-08T18:22:09.818Z,100247.24
2017-08-08T18:24:37.221Z,100235.96
2017-08-08T18:27:04.678Z,100234.27
2017-08-08T18:29:32.088Z,100229.01
2017-08-08T18:31:59.701Z,100229.02
2017-08-08T18:34:27.115Z,100220.63
2017-08-08T18:36:54.503Z,100227.13
2017-08-08T18:39:21.898Z,100228.08
2017-08-08T18:41:49.512Z,100226.53
2017-08-08T18:44:16.903Z,100226.05
2017-08-08T18:46:44.298Z,100226.73
2017-08-08T18:49:11.694Z,100234.80
2017-08-08T18:51:39.099Z,100238.74
2017-08-08T18:54:06.522Z,100233.23
2017-08-08T18:56:33.916Z,100235.85
2017-08-08T18:59:01.314Z,100238.89
2017-08-08T19:01:28.818Z,100241.12
2017-08-08T19:03:56.187Z,100251.30
2017-08-08T19:06:23.654Z,100247.64
2017-08-08T19:08:51.024Z,100247.66
2017-08-08T19:11:18.427Z,100255.06
2017-08-08T19:13:45.825Z,100250.86
2017-08-08T19:16:13.211Z,100254.82
2017-08-08T19:18:40.610Z,100254.66
2017-08-08T19:21:08.010Z,100256.81
2017-08-08T19:23:35.402Z,100260.66
2017-08-08T19:26:02.810Z,100259.38
2017-08-08T19:28:30.202Z,100269.88
2017-08-08T19:30:57.607Z,100271.40
2017-08-08T19:33:24.998Z,100277.20
2017-08-08T19:35:52.412Z,100281.67
2017-08-08T19:38:20.427Z,100280.86
2017-08-08T19:40:48.047Z,100285.78
2017-08-08T19:43:15.441Z,100284.42
2017-08-08T19:45:42.842Z,100296.62
2017-08-08T19:48:10.236Z,100286.58
2017-08-08T19:50:37.659Z,100277.28
2017-08-08T19:53:05.050Z,100278.73
2017-08-08T19:55:32.698Z,100278.56
2017-08-08T19:58:00.112Z,100287.87
2017-08-08T20:00:27.568Z,100286.08
2017-08-08T20:02:54.967Z,100279.77
2017-08-08T20:05:22.359Z,100287.44
2017-08-08T20:07:49.787Z,100277.34
2017-08-08T20:10:17.186Z,100276.62
2017-08-08T20:12:44.586Z,100264.98
2017-08-08T20:15:11.982Z,100262.49
2017-08-08T20:17:39.383Z,100264.05
2017-08-08T20:20:06.784Z,100272.55
2017-08-08T20:22:34.190Z,100265.91
2017-08-08T20:25:01.591Z,100268.25
2017-08-08T20:27:28.986Z,100270.67
2017-08-08T20:29:56.411Z,100265.50
2017-08-08T20:32:23.824Z,100257.22
2017-08-08T20:34:51.231Z,100252.73
2017-08-08T20:37:18.850Z,100250.63
2017-08-08T20:39:46.478Z,100251.38
2017-08-08T20:42:13.879Z,100247.34
2017-08-08T20:44:41.271Z,100243.02
2017-08-08T20:47:08.668Z,100250.33
2017-08-08T20:49:36.070Z,100249.08
2017-08-08T20:52:03.458Z,100240.93
2017-08-08T20:54:30.866Z,100234.52
2017-08-08T20:56:58.255Z,100240.31
2017-08-08T20:59:25.672Z,100243.17
2017-08-08T21:01:53.065Z,100246.14
2017-08-08T21:04:20.467Z,100246.43
2017-08-08T21:06:47.858Z,100244.07
2017-08-08T21:09:15.263Z,100248.16
2017-08-08T21:11:44.331Z,100252.94
2017-08-08T21:14:11.763Z,100259.88
2017-08-08T21:16:39.159Z,100259.05
2017-08-08T21:19:06.575Z,100263.93
2017-08-08T21:21:33.962Z,100270.52
2017-08-08T21:24:01.367Z,100271.19
2017-08-08T21:26:28.764Z,100280.56
2017-08-08T21:28:56.167Z,100282.32
2017-08-08T21:31:23.553Z,100285.36
2017-08-08T21:33:50.942Z,100287.47
2017-08-08T21:36:18.345Z,100296.57
2017-08-08T21:38:45.739Z,100292.56
2017-08-08T21:41:13.131Z,100304.11
2017-08-08T21:43:40.535Z,100310.97
2017-08-08T21:46:07.919Z,100312.91
2017-08-08T21:48:35.322Z,100309.79
2017-08-08T21:51:02.918Z,100313.69
2017-08-08T21:53:30.338Z,100314.80
2017-08-08T21:55:57.724Z,100310.40
2017-08-08T21:58:25.115Z,100314.14
2017-08-08T22:00:52.728Z,100308.64
2017-08-08T22:03:20.118Z,100312.67
2017-08-08T22:05:47.516Z,100321.04
2017-08-08T22:08:14.903Z,100317.38
2017-08-08T22:10:42.290Z,100321.89
2017-08-08T22:13:09.691Z,100319.11
2017-08-08T22:15:37.078Z,100317.86
2017-08-08T22:18:04.480Z,100325.00
2017-08-08T22:20:31.886Z,100333.73
2017-08-08T22:22:59.279Z,100327.27
2017-08-08T22:25:26.677Z,100337.09
2017-08-08T22:27:54.310Z,100337.74
2017-08-08T22:30:21.703Z,100346.83
2017-08-08T22:32:49.103Z,100357.50
2017-08-08T22:35:16.499Z,100348.20
2017-08-08T22:37:43.901Z,100347.02
2017-08-08T22:40:11.309Z,100342.83
2017-08-08T22:42:38.949Z,100347.67
2017-08-08T22:45:06.347Z,100347.28
2017-08-08T22:47:33.758Z,100345.87
2017-08-08T22:50:01.155Z,100349.90
2017-08-08T22:52:28.554Z,100356.69
2017-08-08T22:54:55.955Z,100359.44
2017-08-08T22:57:23.366Z,100363.09
2017-08-08T22:59:50.763Z,100360.00
2017-08-08T23:02:18.166Z,100360.52
2017-08-08T23:04:45.550Z,100366.52
2017-08-08T23:07:12.955Z,100366.34
2017-08-08T23:09:40.363Z,100366.42
2017-08-08T23:12:07.763Z,100368.15
2017-08-08T23:14:35.158Z,100370.75
2017-08-08T23:17:02.555Z,100374.91
2017-08-08T23:19:29.959Z,100378.36
2017-08-08T23:21:57.644Z,100387.15
2017-08-08T23:24:25.047Z,100391.27
2017-08-08T23:26:52.443Z,100397.63
2017-08-08T23:29:20.115Z,100396.63
2017-08-08T23:31:47.506Z,100385.95
2017-08-08T23:34:14.916Z,100393.67
2017-08-08T23:36:42.317Z,100391.12
2017-08-08T23:39:09.706Z,100384.50
2017-08-08T23:41:37.116Z,100394.95
2017-08-08T23:44:04.528Z,100393.07
2017-08-08T23:46:31.924Z,100391.42
2017-08-08T23:48:59.331Z,100398.45
2017-08-08T23:51:26.725Z,100396.36
2017-08-08T23:53:54.126Z,100406.45
2017-08-08T23:56:21.515Z,100407.36
2017-08-08T23:58:49.183Z,100411.23
